createdAt,value
2022-11-03T00:02:12.009Z,5.40
2022-11-03T00:12:15.567Z,5.30
2022-11-03T00:22:18.902Z,5.20
2022-11-03T00:32:22.181Z,6.30
2022-11-03T00:42:25.432Z,5.70
2022-11-03T00:52:28.738Z,5.40
2022-11-03T01:02:32.081Z,4.90
2022-11-03T01:12:35.467Z,5.00
2022-11-03T01:22:38.724Z,7.40
2022-11-03T01:32:42.073Z,7.80
2022-11-03T01:42:45.310Z,8.40
2022-11-03T01:52:56.249Z,10.30
2022-11-03T02:03:01.212Z,9.60
2022-11-03T02:13:12.960Z,10.50
2022-11-03T02:23:29.307Z,7.50
2022-11-03T02:33:48.001Z,6.70
2022-11-03T02:43:52.791Z,5.40
2022-11-03T02:54:14.681Z,4.50
2022-11-03T03:04:43.607Z,4.20
2022-11-03T03:14:49.525Z,4.30
2022-11-03T03:25:15.219Z,4.20
2022-11-03T03:35:23.884Z,4.00
2022-11-03T03:45:27.675Z,3.60
2022-11-03T03:55:39.391Z,3.40
2022-11-03T04:05:42.816Z,3.60
2022-11-03T04:15:51.911Z,3.90
2022-11-03T04:25:56.979Z,3.30
2022-11-03T04:36:00.687Z,3.30
2022-11-03T04:46:04.572Z,3.30
2022-11-03T04:56:15.888Z,3.20
2022-11-03T05:06:20.518Z,3.20
2022-11-03T05:16:24.846Z,3.40
2022-11-03T05:26:34.744Z,3.50
2022-11-03T05:36:38.935Z,3.20
2022-11-03T05:46:42.276Z,3.40
2022-11-03T05:56:45.587Z,3.30
2022-11-03T06:06:56.062Z,3.50
2022-11-03T06:17:08.383Z,4.00
2022-11-03T06:27:18.896Z,3.80
2022-11-03T06:37:27.892Z,3.90
2022-11-03T06:47:31.141Z,40.50
2022-11-03T06:57:43.235Z,4.30
2022-11-03T07:07:47.334Z,4.70
2022-11-03T07:17:50.998Z,6.00
2022-11-03T07:27:58.727Z,6.00
2022-11-03T07:38:10.121Z,6.20
2022-11-03T07:48:16.596Z,4.60
2022-11-03T07:58:24.763Z,5.20
2022-11-03T08:08:28.000Z,4.10
2022-11-03T08:18:31.298Z,4.90
2022-11-03T08:28:35.139Z,4.10
2022-11-03T08:38:38.653Z,4.00
2022-11-03T08:48:41.972Z,3.80
2022-11-03T08:58:45.304Z,3.90
2022-11-03T09:19:12.071Z,3.10
2022-11-03T09:29:15.275Z,3.00
2022-11-03T09:39:18.509Z,3.40
2022-11-03T09:49:21.924Z,2.70
2022-11-03T09:59:25.682Z,2.90
2022-11-03T10:09:29.887Z,2.60
2022-11-03T10:19:33.128Z,2.80
2022-11-03T10:29:38.895Z,3.10
2022-11-03T10:39:47.892Z,2.60
2022-11-03T10:49:51.457Z,2.30
2022-11-03T10:59:55.772Z,2.50
2022-11-03T11:10:07.252Z,2.60
2022-11-03T11:20:22.961Z,3.60
2022-11-03T11:30:29.210Z,2.10
2022-11-03T11:40:32.443Z,2.10
2022-11-03T11:50:36.421Z,2.40
2022-11-03T12:00:51.645Z,1.50
2022-11-03T12:10:57.981Z,2.20
2022-11-03T12:21:06.494Z,1.70
2022-11-03T12:31:09.777Z,2.50
2022-11-03T12:41:22.301Z,2.30
2022-11-03T12:51:25.988Z,2.10
2022-11-03T13:01:30.570Z,2.50
2022-11-03T13:11:52.765Z,4.20
2022-11-03T13:21:56.015Z,3.30
2022-11-03T13:31:59.406Z,4.20
2022-11-03T13:42:02.729Z,67.20
2022-11-03T13:52:06.310Z,4.20
2022-11-03T14:12:33.338Z,2.80
2022-11-03T14:22:37.159Z,2.90
2022-11-03T14:32:40.374Z,2.90
2022-11-03T14:42:43.912Z,4.50
2022-11-03T14:52:47.341Z,4.30
2022-11-03T15:02:50.556Z,4.80
2022-11-03T15:12:53.749Z,7.00
2022-11-03T15:33:21.499Z,7.20
2022-11-03T15:43:24.760Z,17.70
2022-11-03T15:53:28.060Z,53.60
2022-11-03T16:03:34.994Z,99.90
2022-11-03T16:13:38.370Z,72.60
2022-11-03T16:23:42.325Z,71.10
2022-11-03T16:33:46.264Z,81.70
2022-11-03T16:43:50.509Z,103.50
2022-11-03T16:53:54.986Z,59.10
2022-11-03T17:03:58.251Z,41.00
2022-11-03T17:14:03.883Z,41.90
2022-11-03T17:24:08.311Z,56.60
2022-11-03T17:34:12.419Z,88.70
2022-11-03T17:44:17.531Z,56.90
2022-11-03T17:54:20.816Z,22.50
2022-11-03T18:04:24.145Z,26.90
2022-11-03T18:14:29.767Z,62.10
2022-11-03T18:24:33.041Z,89.20
2022-11-03T18:34:36.737Z,48.20
2022-11-03T18:44:41.726Z,39.70
2022-11-03T18:54:47.562Z,22.40
2022-11-03T19:04:51.297Z,12.20
2022-11-03T19:14:54.608Z,8.40
2022-11-03T19:24:57.843Z,14.40
2022-11-03T19:35:20.704Z,27.40
2022-11-03T19:45:24.418Z,51.00
2022-11-03T19:55:40.617Z,18.80
2022-11-03T20:05:49.280Z,22.50
2022-11-03T20:15:58.939Z,24.20
2022-11-03T20:26:04.748Z,32.60
2022-11-03T20:36:15.215Z,20.60
2022-11-03T20:46:18.473Z,30.50
2022-11-03T20:56:24.964Z,32.10
2022-11-03T21:06:30.525Z,24.90
2022-11-03T21:16:52.633Z,24.00
2022-11-03T21:26:55.920Z,19.00
2022-11-03T21:36:59.345Z,21.40
2022-11-03T21:47:02.530Z,23.30
2022-11-03T21:57:08.157Z,12.40
2022-11-03T22:07:12.285Z,12.20
2022-11-03T22:17:15.599Z,12.10
2022-11-03T22:27:18.898Z,14.20
2022-11-03T22:37:22.120Z,13.80
2022-11-03T22:47:27.102Z,14.60
2022-11-03T22:57:30.594Z,12.00
2022-11-03T23:07:41.008Z,10.60
2022-11-03T23:18:03.159Z,12.50
2022-11-03T23:28:06.508Z,13.20
2022-11-03T23:38:10.076Z,14.30
2022-11-03T23:48:39.976Z,10.00
2022-11-03T23:58:43.127Z,10.20
